createdAt,value
2018-02-09T00:02:03.272Z,46.17
2018-02-09T00:04:30.812Z,45.37
2018-02-09T00:06:59.857Z,46.23
2018-02-09T00:09:27.949Z,47.53
2018-02-09T00:11:55.492Z,43.57
2018-02-09T00:14:23.039Z,47.90
2018-02-09T00:16:51.033Z,44.60
2018-02-09T00:19:18.578Z,44.93
2018-02-09T00:21:47.046Z,43.47
2018-02-09T00:24:14.584Z,45.47
2018-02-09T00:26:42.103Z,47.23
2018-02-09T00:29:09.646Z,44.00
2018-02-09T00:31:37.188Z,46.47
2018-02-09T00:34:05.582Z,44.93
2018-02-09T00:36:33.109Z,45.40
2018-02-09T00:39:01.428Z,45.23
2018-02-09T00:41:30.849Z,43.80
2018-02-09T00:43:58.391Z,45.93
2018-02-09T00:46:26.745Z,43.90
2018-02-09T00:48:55.139Z,42.43
2018-02-09T00:51:22.671Z,44.77
2018-02-09T00:53:50.453Z,43.20
2018-02-09T00:56:18.191Z,44.90
2018-02-09T00:58:45.747Z,43.43
2018-02-09T01:01:14.840Z,44.83
2018-02-09T01:03:42.849Z,43.80
2018-02-09T01:06:10.405Z,43.87
2018-02-09T01:08:39.536Z,42.97
2018-02-09T01:11:07.865Z,45.70
2018-02-09T01:13:36.251Z,44.37
2018-02-09T01:16:04.234Z,48.60
2018-02-09T01:18:31.769Z,46.53
2018-02-09T01:20:59.317Z,45.87
2018-02-09T01:23:27.634Z,45.63
2018-02-09T01:25:55.191Z,45.30
2018-02-09T01:28:23.046Z,44.60
2018-02-09T01:30:50.604Z,41.73
2018-02-09T01:33:18.129Z,45.30
2018-02-09T01:35:45.687Z,42.83
2018-02-09T01:38:14.588Z,44.07
2018-02-09T01:40:42.137Z,46.17
2018-02-09T01:43:09.997Z,43.27
2018-02-09T01:45:38.775Z,45.67
2018-02-09T01:48:06.318Z,46.30
2018-02-09T01:50:34.268Z,44.43
2018-02-09T01:53:01.797Z,45.07
2018-02-09T01:55:29.357Z,46.90
2018-02-09T01:57:57.481Z,47.03
2018-02-09T02:00:25.053Z,44.07
2018-02-09T02:02:52.608Z,45.70
2018-02-09T02:05:20.139Z,44.93
2018-02-09T02:07:48.242Z,45.40
2018-02-09T02:10:15.767Z,42.53
2018-02-09T02:12:43.747Z,41.93
2018-02-09T02:15:11.272Z,44.17
2018-02-09T02:17:39.637Z,45.50
2018-02-09T02:20:07.169Z,44.27
2018-02-09T02:22:35.064Z,43.77
2018-02-09T02:25:02.590Z,48.10
2018-02-09T02:27:30.126Z,44.57
2018-02-09T02:29:57.662Z,43.80
2018-02-09T02:32:25.237Z,46.20
2018-02-09T02:34:52.760Z,41.73
2018-02-09T02:37:21.346Z,46.50
2018-02-09T02:39:48.876Z,43.83
2018-02-09T02:42:16.422Z,42.03
2018-02-09T02:44:45.092Z,45.37
2018-02-09T02:47:12.645Z,44.97
2018-02-09T02:49:40.671Z,44.73
2018-02-09T02:52:08.213Z,46.70
2018-02-09T02:54:35.746Z,47.00
2018-02-09T02:57:03.291Z,46.30
2018-02-09T02:59:30.828Z,46.20
2018-02-09T03:01:58.392Z,43.80
2018-02-09T03:04:25.930Z,45.37
2018-02-09T03:06:53.448Z,44.70
2018-02-09T03:09:21.922Z,44.87
2018-02-09T03:11:49.448Z,44.57
2018-02-09T03:14:17.424Z,44.47
2018-02-09T03:16:44.960Z,43.80
2018-02-09T03:19:12.501Z,44.23
2018-02-09T03:21:40.031Z,44.83
2018-02-09T03:24:07.612Z,45.60
2018-02-09T03:26:35.137Z,43.53
2018-02-09T03:29:02.678Z,43.93
2018-02-09T03:31:30.206Z,43.27
2018-02-09T03:33:57.750Z,43.23
2018-02-09T03:36:25.284Z,43.73
2018-02-09T03:38:52.853Z,47.03
2018-02-09T03:41:20.373Z,44.47
2018-02-09T03:43:47.916Z,47.90
2018-02-09T03:46:15.439Z,47.60
2018-02-09T03:48:43.860Z,42.60
2018-02-09T03:51:11.383Z,42.97
2018-02-09T03:53:38.926Z,44.27
2018-02-09T03:56:06.443Z,41.83
2018-02-09T03:58:34.749Z,43.67
2018-02-09T04:01:03.171Z,42.07
2018-02-09T04:03:30.714Z,43.37
2018-02-09T04:05:58.996Z,43.83
2018-02-09T04:08:26.541Z,44.37
2018-02-09T04:10:54.070Z,42.50
2018-02-09T04:13:21.588Z,42.73
2018-02-09T04:15:49.126Z,45.47
2018-02-09T04:18:17.047Z,46.80
2018-02-09T04:20:44.601Z,47.00
2018-02-09T04:26:38.929Z,43.90
2018-02-09T04:31:41.738Z,43.97
2018-02-09T04:34:21.082Z,46.77
2018-02-09T04:36:53.077Z,44.57
2018-02-09T04:39:21.009Z,43.47
2018-02-09T04:41:49.201Z,45.13
2018-02-09T04:44:16.747Z,43.93
2018-02-09T04:46:49.047Z,40.93
2018-02-09T04:49:22.433Z,45.87
2018-02-09T04:51:49.964Z,44.63
2018-02-09T04:54:17.505Z,45.50
2018-02-09T04:57:02.066Z,43.30
2018-02-09T04:59:31.180Z,44.03
2018-02-09T05:02:02.852Z,44.73
2018-02-09T05:07:25.501Z,43.90
2018-02-09T05:09:53.445Z,42.00
2018-02-09T05:12:27.901Z,42.37
2018-02-09T05:14:57.697Z,46.53
2018-02-09T05:17:25.338Z,45.43
2018-02-09T05:19:55.445Z,45.87
2018-02-09T05:22:25.509Z,43.13
2018-02-09T05:24:59.759Z,43.40
2018-02-09T05:27:28.330Z,38.33
2018-02-09T05:29:56.636Z,43.80
2018-02-09T05:32:24.963Z,43.00
2018-02-09T05:34:52.493Z,43.77
2018-02-09T05:37:20.039Z,46.13
2018-02-09T05:39:47.887Z,42.90
2018-02-09T05:42:15.979Z,44.10
2018-02-09T05:44:43.852Z,44.47
2018-02-09T05:47:11.408Z,42.83
2018-02-09T05:49:39.593Z,43.40
2018-02-09T05:52:07.141Z,42.10
2018-02-09T05:54:36.232Z,44.63
2018-02-09T05:57:03.804Z,45.37
2018-02-09T05:59:32.247Z,43.93
2018-02-09T06:01:59.811Z,43.57
2018-02-09T06:04:27.743Z,44.40
2018-02-09T06:06:55.406Z,43.10
2018-02-09T06:09:23.353Z,42.40
2018-02-09T06:11:50.896Z,41.53
2018-02-09T06:14:18.424Z,41.60
2018-02-09T06:16:46.360Z,42.33
2018-02-09T06:19:13.906Z,41.07
2018-02-09T06:21:41.856Z,41.17
2018-02-09T06:24:09.379Z,43.60
2018-02-09T06:26:36.909Z,43.30
2018-02-09T06:29:04.462Z,42.60
2018-02-09T06:31:32.004Z,43.67
2018-02-09T06:33:59.544Z,44.60
2018-02-09T06:36:27.825Z,43.63
2018-02-09T06:38:55.368Z,43.97
2018-02-09T06:41:22.904Z,43.93
2018-02-09T06:43:51.689Z,43.00
2018-02-09T06:46:20.160Z,44.90
2018-02-09T06:48:47.707Z,42.67
2018-02-09T06:51:15.666Z,42.93
2018-02-09T06:53:43.921Z,42.70
2018-02-09T06:56:11.453Z,42.60
2018-02-09T06:58:38.998Z,42.27
2018-02-09T07:01:06.531Z,45.33
2018-02-09T07:03:34.485Z,42.40
2018-02-09T07:06:02.015Z,41.70
2018-02-09T07:08:29.553Z,40.23
2018-02-09T07:10:57.079Z,41.07
2018-02-09T07:13:25.092Z,40.73
2018-02-09T07:15:53.333Z,40.70
2018-02-09T07:18:21.270Z,42.67
2018-02-09T07:20:48.792Z,38.07
2018-02-09T07:23:16.367Z,37.87
2018-02-09T07:25:43.893Z,39.70
2018-02-09T07:28:12.214Z,39.03
2018-02-09T07:30:40.502Z,40.03
2018-02-09T07:33:08.047Z,38.40
2018-02-09T07:35:36.537Z,40.33
2018-02-09T07:38:04.822Z,39.30
2018-02-09T07:40:33.142Z,39.80
2018-02-09T07:43:00.657Z,41.10
2018-02-09T07:45:28.598Z,42.53
2018-02-09T07:47:56.124Z,42.20
2018-02-09T07:50:24.076Z,41.13
2018-02-09T07:52:51.615Z,40.33
2018-02-09T07:55:19.924Z,43.33
2018-02-09T07:57:48.212Z,41.57
2018-02-09T08:00:16.156Z,41.87
2018-02-09T08:02:43.680Z,41.70
2018-02-09T08:05:11.222Z,40.90
2018-02-09T08:07:38.784Z,39.90
2018-02-09T08:10:06.333Z,38.00
2018-02-09T08:12:34.292Z,39.40
2018-02-09T08:15:01.834Z,40.00
2018-02-09T08:17:29.346Z,38.70
2018-02-09T08:19:56.881Z,36.60
2018-02-09T08:22:24.405Z,37.77
2018-02-09T08:24:51.961Z,37.03
2018-02-09T08:27:19.497Z,35.33
2018-02-09T08:29:47.059Z,36.60
2018-02-09T08:32:15.021Z,36.43
2018-02-09T08:34:42.654Z,35.20
2018-02-09T08:37:10.209Z,33.80
2018-02-09T08:39:37.755Z,35.23
2018-02-09T08:42:06.048Z,36.80
2018-02-09T08:44:34.499Z,32.77
2018-02-09T08:47:02.416Z,34.63
2018-02-09T08:49:29.957Z,34.37
2018-02-09T08:51:57.480Z,35.07
2018-02-09T08:54:25.008Z,34.73
2018-02-09T08:56:52.940Z,36.97
2018-02-09T08:59:20.455Z,35.23
2018-02-09T09:01:48.407Z,34.53
2018-02-09T09:04:15.928Z,34.87
2018-02-09T09:06:43.874Z,32.43
2018-02-09T09:09:12.994Z,34.03
2018-02-09T09:11:40.549Z,32.57
2018-02-09T09:14:08.842Z,31.70
2018-02-09T09:16:37.265Z,31.33
2018-02-09T09:19:05.566Z,33.80
2018-02-09T09:21:34.778Z,33.13
2018-02-09T09:24:02.734Z,33.17
2018-02-09T09:26:30.673Z,33.30
2018-02-09T09:28:59.680Z,33.30
2018-02-09T09:31:28.001Z,33.50
2018-02-09T09:33:56.280Z,32.33
2018-02-09T09:36:24.211Z,32.63
2018-02-09T09:38:52.509Z,32.00
2018-02-09T09:41:21.251Z,34.27
2018-02-09T09:43:49.492Z,35.37
2018-02-09T09:46:17.429Z,34.87
2018-02-09T09:48:44.949Z,35.33
2018-02-09T09:51:12.894Z,33.00
2018-02-09T09:53:40.809Z,32.37
2018-02-09T09:56:08.497Z,32.47
2018-02-09T09:58:36.790Z,32.67
2018-02-09T10:01:10.663Z,34.13
2018-02-09T10:03:38.942Z,32.67
2018-02-09T10:06:07.241Z,31.03
2018-02-09T10:08:35.173Z,32.80
2018-02-09T10:11:04.324Z,33.47
2018-02-09T10:13:32.315Z,34.60
2018-02-09T10:15:59.818Z,32.20
2018-02-09T10:18:27.740Z,34.10
2018-02-09T10:20:56.018Z,34.33
2018-02-09T10:23:23.574Z,35.70
2018-02-09T10:25:52.136Z,34.30
2018-02-09T10:28:19.699Z,34.80
2018-02-09T10:30:47.223Z,37.53
2018-02-09T10:33:15.150Z,35.37
2018-02-09T10:35:42.683Z,34.93
2018-02-09T10:38:10.987Z,32.23
2018-02-09T10:40:38.915Z,34.83
2018-02-09T10:43:06.459Z,35.40
2018-02-09T10:45:34.409Z,34.13
2018-02-09T10:48:02.737Z,35.43
2018-02-09T10:50:31.081Z,33.80
2018-02-09T10:52:59.068Z,33.00
2018-02-09T10:55:27.352Z,35.90
2018-02-09T10:57:55.493Z,35.47
2018-02-09T11:00:28.585Z,34.43
2018-02-09T11:02:56.894Z,33.17
2018-02-09T11:05:25.187Z,32.00
2018-02-09T11:07:52.715Z,31.43
2018-02-09T11:10:26.594Z,33.20
2018-02-09T11:12:54.587Z,34.03
2018-02-09T11:15:22.873Z,33.80
2018-02-09T11:17:51.188Z,31.83
2018-02-09T11:20:18.711Z,29.33
2018-02-09T11:22:46.661Z,31.47
2018-02-09T11:25:14.188Z,27.80
2018-02-09T11:27:42.108Z,31.27
2018-02-09T11:30:10.440Z,30.50
2018-02-09T11:32:39.355Z,29.10
2018-02-09T11:35:07.293Z,29.40
2018-02-09T11:37:35.577Z,27.53
2018-02-09T11:40:03.531Z,27.90
2018-02-09T11:42:31.509Z,30.40
2018-02-09T11:44:59.896Z,29.57
2018-02-09T11:47:28.251Z,26.83
2018-02-09T11:49:56.217Z,25.93
2018-02-09T11:52:24.507Z,26.30
2018-02-09T11:54:53.630Z,27.33
2018-02-09T11:57:21.936Z,27.33
2018-02-09T11:59:49.501Z,27.90
2018-02-09T12:02:17.791Z,25.60
2018-02-09T12:04:45.876Z,25.40
2018-02-09T12:07:13.800Z,24.37
2018-02-09T12:09:41.777Z,25.97
2018-02-09T12:12:10.062Z,24.53
2018-02-09T12:14:39.104Z,22.53
2018-02-09T12:17:06.649Z,24.20
2018-02-09T12:19:34.586Z,23.70
2018-02-09T12:22:02.117Z,23.00
2018-02-09T12:24:29.682Z,24.10
2018-02-09T12:26:57.203Z,23.83
2018-02-09T12:29:24.722Z,24.23
2018-02-09T12:31:52.685Z,23.60
2018-02-09T12:34:20.982Z,21.17
2018-02-09T12:36:50.045Z,25.07
2018-02-09T12:39:17.976Z,23.50
2018-02-09T12:41:45.514Z,21.70
2018-02-09T12:44:13.432Z,23.97
2018-02-09T12:46:41.728Z,24.37
2018-02-09T12:49:10.012Z,24.97
2018-02-09T12:51:38.316Z,22.77
2018-02-09T12:54:06.235Z,23.13
2018-02-09T12:56:34.577Z,22.00
2018-02-09T12:59:02.104Z,21.80
2018-02-09T13:01:29.652Z,22.73
2018-02-09T13:03:57.590Z,23.63
2018-02-09T13:06:25.885Z,22.00
2018-02-09T13:08:54.168Z,24.00
2018-02-09T13:11:21.721Z,21.47
2018-02-09T13:13:49.662Z,23.47
2018-02-09T13:16:17.981Z,21.87
2018-02-09T13:18:48.186Z,23.47
2018-02-09T13:21:16.179Z,22.30
2018-02-09T13:23:57.128Z,22.80
2018-02-09T13:26:25.653Z,21.20
2018-02-09T13:29:00.249Z,21.67
2018-02-09T13:31:27.793Z,21.20
2018-02-09T13:33:56.082Z,20.37
2018-02-09T13:36:36.096Z,22.57
2018-02-09T13:39:03.630Z,23.00
2018-02-09T13:41:31.947Z,21.80
2018-02-09T13:44:00.243Z,21.67
2018-02-09T13:46:27.793Z,22.40
2018-02-09T13:48:55.718Z,22.30
2018-02-09T13:51:24.031Z,21.87
2018-02-09T13:53:52.338Z,21.37
2018-02-09T13:56:21.689Z,25.40
2018-02-09T13:58:49.650Z,22.53
2018-02-09T14:01:18.321Z,24.10
2018-02-09T14:03:45.868Z,24.67
2018-02-09T14:06:15.005Z,24.50
2018-02-09T14:08:43.313Z,22.10
2018-02-09T14:11:11.248Z,24.77
2018-02-09T14:13:39.555Z,23.07
2018-02-09T14:16:07.832Z,24.13
2018-02-09T14:18:36.257Z,26.13
2018-02-09T14:21:04.577Z,23.47
2018-02-09T14:23:32.917Z,23.37
2018-02-09T14:26:01.213Z,23.23
2018-02-09T14:28:29.528Z,22.47
2018-02-09T14:30:57.041Z,25.50
2018-02-09T14:33:25.694Z,24.40
2018-02-09T14:35:54.735Z,24.10
2018-02-09T14:38:23.034Z,25.77
2018-02-09T14:40:50.556Z,25.03
2018-02-09T14:43:18.489Z,26.00
2018-02-09T14:45:46.018Z,25.47
2018-02-09T14:48:14.485Z,26.40
2018-02-09T14:50:43.728Z,26.97
2018-02-09T14:53:12.505Z,25.83
2018-02-09T14:55:41.101Z,27.83
2018-02-09T14:58:10.681Z,27.67
2018-02-09T15:00:38.610Z,26.33
2018-02-09T15:03:06.966Z,27.70
2018-02-09T15:05:35.254Z,23.70
2018-02-09T15:08:03.572Z,27.80
2018-02-09T15:10:32.833Z,27.03
2018-02-09T15:13:00.369Z,30.43
2018-02-09T15:15:28.682Z,28.00
2018-02-09T15:17:57.891Z,26.63
2018-02-09T15:20:25.850Z,27.30
2018-02-09T15:22:53.788Z,26.47
2018-02-09T15:25:21.345Z,28.00
2018-02-09T15:27:49.261Z,27.90
2018-02-09T15:30:17.757Z,25.57
2018-02-09T15:32:46.038Z,27.70
2018-02-09T15:35:14.345Z,27.03
2018-02-09T15:37:42.633Z,24.90
2018-02-09T15:40:10.946Z,27.27
2018-02-09T15:42:39.238Z,26.67
2018-02-09T15:45:08.342Z,25.67
2018-02-09T15:47:36.259Z,27.30
2018-02-09T15:50:04.584Z,26.80
2018-02-09T15:52:33.692Z,28.03
2018-02-09T15:55:01.645Z,27.20
2018-02-09T15:57:29.560Z,27.57
2018-02-09T15:59:57.878Z,29.23
2018-02-09T16:02:26.273Z,25.10
2018-02-09T16:04:54.588Z,27.63
2018-02-09T16:07:22.517Z,28.00
2018-02-09T16:09:50.624Z,26.50
2018-02-09T16:12:18.158Z,31.77
2018-02-09T16:14:46.515Z,29.80
2018-02-09T16:17:14.059Z,30.47
2018-02-09T16:19:41.996Z,31.40
2018-02-09T16:22:11.473Z,29.47
2018-02-09T16:24:39.393Z,31.10
2018-02-09T16:27:08.122Z,27.30
2018-02-09T16:29:35.657Z,29.93
2018-02-09T16:32:04.006Z,29.73
2018-02-09T16:34:32.902Z,30.73
2018-02-09T16:37:01.917Z,30.17
2018-02-09T16:39:30.287Z,31.40
2018-02-09T16:41:58.921Z,29.70
2018-02-09T16:44:27.753Z,32.17
2018-02-09T16:46:55.322Z,30.90
2018-02-09T16:49:22.847Z,29.73
2018-02-09T16:51:51.403Z,29.57
2018-02-09T16:54:19.710Z,27.33
2018-02-09T16:56:47.348Z,30.07
2018-02-09T16:59:14.870Z,30.07
2018-02-09T17:01:42.861Z,29.33
2018-02-09T17:04:11.175Z,27.90
2018-02-09T17:06:39.478Z,27.83
2018-02-09T17:09:07.754Z,27.73
2018-02-09T17:11:36.007Z,26.47
2018-02-09T17:14:03.536Z,30.90
2018-02-09T17:16:31.472Z,28.40
2018-02-09T17:18:59.838Z,26.47
2018-02-09T17:21:27.376Z,26.87
2018-02-09T17:23:55.300Z,26.43
2018-02-09T17:26:24.415Z,25.80
2018-02-09T17:28:51.987Z,25.60
2018-02-09T17:31:20.286Z,25.13
2018-02-09T17:33:47.869Z,23.67
2018-02-09T17:36:15.806Z,26.20
2018-02-09T17:38:45.056Z,25.03
2018-02-09T17:41:12.626Z,26.37
2018-02-09T17:43:40.932Z,24.70
2018-02-09T17:46:08.858Z,23.93
2018-02-09T17:48:37.802Z,25.27
2018-02-09T17:51:07.420Z,26.57
2018-02-09T17:53:35.896Z,26.40
2018-02-09T17:56:03.468Z,26.80
2018-02-09T17:58:31.897Z,29.33
2018-02-09T18:00:59.812Z,28.00
2018-02-09T18:03:27.372Z,26.43
2018-02-09T18:05:55.634Z,27.43
2018-02-09T18:08:23.953Z,31.90
2018-02-09T18:10:52.805Z,28.63
2018-02-09T18:13:22.181Z,28.80
2018-02-09T18:15:52.543Z,25.67
2018-02-09T18:18:20.482Z,27.30
2018-02-09T18:20:49.195Z,27.87
2018-02-09T18:23:17.269Z,26.77
2018-02-09T18:25:44.790Z,27.80
2018-02-09T18:28:12.335Z,27.13
2018-02-09T18:30:40.246Z,27.70
2018-02-09T18:33:07.840Z,26.43
2018-02-09T18:35:35.380Z,29.83
2018-02-09T18:38:04.558Z,30.93
2018-02-09T18:40:32.118Z,27.80
2018-02-09T18:43:00.059Z,28.77
2018-02-09T18:45:27.616Z,34.20
2018-02-09T18:47:55.165Z,30.20
2018-02-09T18:50:22.722Z,29.63
2018-02-09T18:52:50.284Z,29.23
2018-02-09T18:55:17.832Z,27.80
2018-02-09T18:57:45.354Z,28.90
2018-02-09T19:00:12.892Z,29.43
2018-02-09T19:02:41.203Z,28.90
2018-02-09T19:05:08.770Z,29.97
2018-02-09T19:07:36.306Z,29.63
2018-02-09T19:10:03.844Z,27.77
2018-02-09T19:12:31.416Z,31.53
2018-02-09T19:14:59.357Z,29.40
2018-02-09T19:17:26.872Z,30.80
2018-02-09T19:19:55.187Z,29.23
2018-02-09T19:22:22.737Z,28.60
2018-02-09T19:24:50.277Z,29.00
2018-02-09T19:27:18.561Z,29.03
2018-02-09T19:29:47.601Z,29.87
2018-02-09T19:32:15.124Z,28.83
2018-02-09T19:34:42.660Z,29.90
2018-02-09T19:37:10.168Z,29.17
2018-02-09T19:39:37.747Z,30.97
2018-02-09T19:42:05.273Z,31.37
2018-02-09T19:44:33.584Z,31.40
2018-02-09T19:47:02.019Z,31.40
2018-02-09T19:49:29.596Z,30.70
2018-02-09T19:51:58.268Z,29.90
2018-02-09T19:54:25.805Z,30.03
2018-02-09T19:56:54.102Z,32.10
2018-02-09T19:59:21.653Z,29.90
2018-02-09T20:01:50.880Z,28.37
2018-02-09T20:04:18.422Z,30.67
2018-02-09T20:06:47.206Z,26.83
2018-02-09T20:09:16.224Z,27.00
2018-02-09T20:11:44.306Z,28.90
2018-02-09T20:14:11.857Z,31.57
2018-02-09T20:16:39.840Z,27.30
2018-02-09T20:19:07.371Z,27.23
2018-02-09T20:21:34.905Z,28.77
2018-02-09T20:24:03.207Z,28.83
2018-02-09T20:26:31.554Z,29.10
2018-02-09T20:28:59.129Z,28.07
2018-02-09T20:31:27.501Z,28.57
2018-02-09T20:33:55.098Z,30.80
2018-02-09T20:36:22.635Z,30.47
2018-02-09T20:38:50.157Z,30.73
2018-02-09T20:41:17.702Z,32.47
2018-02-09T20:43:45.220Z,29.70
2018-02-09T20:46:12.756Z,30.40
2018-02-09T20:48:41.210Z,30.90
2018-02-09T20:51:08.761Z,30.30
2018-02-09T20:53:36.307Z,29.83
2018-02-09T20:56:04.149Z,29.27
2018-02-09T20:58:33.122Z,31.20
2018-02-09T21:01:01.544Z,29.50
2018-02-09T21:03:29.338Z,28.87
2018-02-09T21:05:57.216Z,29.10
2018-02-09T21:08:26.610Z,30.70
2018-02-09T21:10:55.391Z,27.80
2018-02-09T21:13:22.988Z,31.80
2018-02-09T21:15:50.528Z,28.73
2018-02-09T21:18:18.319Z,29.10
2018-02-09T21:20:45.894Z,30.50
2018-02-09T21:23:14.383Z,32.47
2018-02-09T21:25:42.401Z,29.57
2018-02-09T21:28:13.434Z,28.60
2018-02-09T21:30:45.666Z,28.93
2018-02-09T21:33:13.758Z,29.50
2018-02-09T21:35:46.242Z,29.27
2018-02-09T21:38:13.932Z,30.23
2018-02-09T21:40:42.433Z,28.60
2018-02-09T21:43:09.979Z,29.87
2018-02-09T21:45:38.229Z,28.80
2018-02-09T21:48:07.215Z,27.80
2018-02-09T21:50:36.201Z,30.20
2018-02-09T21:53:05.043Z,28.17
2018-02-09T21:55:32.602Z,28.03
2018-02-09T21:58:00.433Z,29.10
2018-02-09T22:00:27.985Z,29.97
2018-02-09T22:02:55.769Z,27.63
2018-02-09T22:05:23.290Z,30.40
2018-02-09T22:07:50.828Z,30.40
2018-02-09T22:10:18.391Z,31.90
2018-02-09T22:12:46.696Z,29.30
2018-02-09T22:15:14.214Z,31.90
2018-02-09T22:17:42.805Z,30.77
2018-02-09T22:20:10.313Z,30.53
2018-02-09T22:22:37.860Z,32.67
2018-02-09T22:25:05.389Z,31.70
2018-02-09T22:27:33.681Z,28.20
2018-02-09T22:30:01.224Z,29.70
2018-02-09T22:32:29.719Z,30.37
2018-02-09T22:34:58.025Z,28.77
2018-02-09T22:37:25.536Z,31.97
2018-02-09T22:39:53.324Z,31.63
2018-02-09T22:42:21.867Z,30.03
2018-02-09T22:44:49.414Z,29.20
2018-02-09T22:47:16.941Z,29.57
2018-02-09T22:49:44.483Z,28.23
2018-02-09T22:52:12.786Z,28.23
2018-02-09T22:54:40.328Z,32.37
2018-02-09T22:57:08.620Z,28.60
2018-02-09T22:59:36.162Z,31.37
2018-02-09T23:02:04.461Z,28.83
2018-02-09T23:04:32.000Z,31.73
2018-02-09T23:07:00.301Z,32.80
2018-02-09T23:09:28.175Z,35.03
2018-02-09T23:11:57.448Z,33.10
2018-02-09T23:14:25.757Z,32.10
2018-02-09T23:16:53.294Z,31.40
2018-02-09T23:19:20.839Z,33.20
2018-02-09T23:21:49.477Z,30.93
2018-02-09T23:24:17.019Z,29.73
2018-02-09T23:26:45.263Z,30.60
2018-02-09T23:29:13.854Z,28.70
2018-02-09T23:31:42.152Z,28.27
2018-02-09T23:34:09.724Z,29.33
2018-02-09T23:36:37.245Z,31.90
2018-02-09T23:39:06.116Z,29.80
2018-02-09T23:41:33.688Z,29.90
2018-02-09T23:44:03.065Z,27.90
2018-02-09T23:46:30.615Z,30.10
2018-02-09T23:48:59.127Z,30.83
2018-02-09T23:51:26.664Z,29.73
2018-02-09T23:53:54.189Z,27.13
2018-02-09T23:56:21.746Z,29.10
2018-02-09T23:58:49.269Z,30.03
